메인 페이지
METAR-TAF:

METAR-TAF

공항 :

위니펙, 매니토바, 캐나다

위도: 49-54N, 경도: 097-14W, 고도: 239m

현재 날씨관측

예보는 24분 전, 02:26시(UTC)에 발표되었습니다.
15kt, 순간 최대 풍속 23kt
온도 -2°C
습도 93%
기압 1003 hPa
시정: 6.4km
고도 500ft 상공 흐림
약한눈, 박무

METAR: CYWG 130226Z 18015G23KT 4SM -SN BR OVC005 M02/M03 A2963 RMK SC8 SLP050

시각: 20:50 (02:50 UTC)

예보

예보는 20분 전, 02:30시(UTC)에 발표되었습니다.
예보 대상 시간: 13일 02시부터 13일 24시까지 (UTC)
15kt, 순간 최대 풍속 25kt
시정: 9.7km
고도 900ft 상공 흐림
약한눈, 박무
일시적
13일 02시부터 13일 12시까지 (UTC)
고도 400ft 상공 흐림
약한눈, 박무
전환 중
13일 07시부터 13일 09시까지 (UTC)
서북서12kt, 순간 최대 풍속 22kt
13일 1200시부터 (UTC)
서북서12kt
시정: 10km
고도 10000ft 상공 구름 많음
13일 1600시부터 (UTC)
12kt
시정: 10km
고도 15000ft 상공 구름 조금
전환 중
13일 22시부터 13일 24시까지 (UTC)
남남서12kt

TAF: CYWG 130230Z 1302/1324 18015G25KT 6SM -SN BR OVC009 TEMPO 1302/1312 11/2SM -SN BR OVC004 BECMG 1307/1309 29012G22KT FM131200 29012KT P6SM BKN100 FM131600 27012KT P6SM FEW150 BECMG 1322/1324 21012KT RMK NXT FCST BY 130600Z

4,000개 이상의 공항 관측 자료 및 예보 (METAR 및 TAF 보고).

지도상에서 검색 가능한 기상관측소가 노란 점과 빨간 점으로 표시되어 있습니다.

기상관측소 명을 보려면 표시 위로 마우스를 이동하세요.

날씨 관측과 예보를 보려면 클릭하세요.

지도 변경 : 확대하려면 엑스 표시가 있는 녹색 버튼, 축소하려면 빼기 표시가 있는 녹색 버튼, 다음 페이지의 지도를 보려면 녹색 화살표를 클릭하세요.


METAR-TAF: